KBJI/BJI METAR and TAF weather

Enter ICAO airport designator
Station Type Date Time Source
KBJI METAR 2019/06/26 17:56 UTC NOAA

KBJI 261756Z AUTO 27014KT 10SM CLR 27/12 A2997 RMK AO2 T02710118 10271 20158


Station Type Date Time Source
KBJI Decoded METAR 2019/06/26 17:56 UTC NOAA

Bemidji, MN, United States (KBJI) 47-30N 094-56W 420M
Jun 26, 2019 - 01:56 PM EDT / 2019.06.26 1756 UTC
Wind: from the W (270 degrees) at 16 MPH (14 KT):0
Visibility: 10 mile(s):0
Sky conditions: clear
Temperature: 80.8 F (27.1 C)
Dew Point: 53.2 F (11.8 C)
Relative Humidity: 38%
Pressure (altimeter): 29.97 in. Hg (1014 hPa)
ob: KBJI 261756Z AUTO 27014KT 10SM CLR 27/12 A2997 RMK AO2 T02710118 10271 20158
cycle: 18

Station Type Date Time Source
KBJI TAF 2019/06/26 18:30 UTC NOAA

TAF KBJI 261726Z 2618/2718 25009KT P6SM FEW060 FEW200
FM271100 00000KT P6SM SCT027 BKN150

Example: see airport list